XNO22K EGAC-EGGW
Flight info
| Callsign | XNO22K |
|---|---|
| Flight time | N/A |
| Altitude | 33000 |
| Route | DUFFY L10 RINGA Q39 ETIGA DCT INKOB Q39 NOMSU UQ4 LISTO |
| Aircraft | A320/M-SDE3FGHIRWY/LB1 |
Departure
| Time | 2026-04-25 19:17 |
|---|---|
| Airport | George Best Belfast City Airport (EGAC) |
Arrival
| Time | N/A |
|---|---|
| Airport | London Luton Airport (EGGW) |
| Time | Latitude | Longitude | Altitude | Speed | Heading |
|---|---|---|---|---|---|
| 2026-04-25 18:44 | 54.61462 | -5.87188 | 24 ft | 0 kts | 156° |
| 2026-04-25 19:09 | 54.61501 | -5.87241 | 21 ft | 4 kts | 95° |
| 2026-04-25 19:10 | 54.61497 | -5.87264 | 24 ft | 1 kts | 34° |
| 2026-04-25 19:10 | 54.61494 | -5.87268 | 24 ft | 0 kts | 34° |
| 2026-04-25 19:13 | 54.61541 | -5.87212 | 21 ft | 18 kts | 35° |
| 2026-04-25 19:13 | 54.61672 | -5.87054 | 21 ft | 22 kts | 35° |
| 2026-04-25 19:13 | 54.61777 | -5.87041 | 21 ft | 17 kts | 310° |
| 2026-04-25 19:14 | 54.61859 | -5.87178 | 19 ft | 15 kts | 347° |
| 2026-04-25 19:14 | 54.61913 | -5.87135 | 18 ft | 13 kts | 34° |
| 2026-04-25 19:14 | 54.62026 | -5.86998 | 17 ft | 14 kts | 35° |
| 2026-04-25 19:14 | 54.62100 | -5.86908 | 16 ft | 13 kts | 36° |
| 2026-04-25 19:15 | 54.62201 | -5.86785 | 20 ft | 21 kts | 34° |
| 2026-04-25 19:15 | 54.62334 | -5.86623 | 21 ft | 22 kts | 34° |
| 2026-04-25 19:15 | 54.62448 | -5.86544 | 21 ft | 13 kts | 14° |
| 2026-04-25 19:15 | 54.62447 | -5.86471 | 20 ft | 9 kts | 210° |
| 2026-04-25 19:16 | 54.62410 | -5.86531 | 24 ft | 5 kts | 219° |
| 2026-04-25 19:16 | 54.62390 | -5.86557 | 22 ft | 3 kts | 216° |
| 2026-04-25 19:16 | 54.62384 | -5.86565 | 22 ft | 0 kts | 216° |
| 2026-04-25 19:16 | 54.62380 | -5.86569 | 22 ft | 7 kts | 215° |
| 2026-04-25 19:17 | 54.62168 | -5.86821 | 18 ft | 76 kts | 215° |
| 2026-04-25 19:17 | 54.61551 | -5.87560 | 15 ft | 139 kts | 214° |
| 2026-04-25 19:17 | 54.60677 | -5.88651 | 379 ft | 160 kts | 217° |
| 2026-04-25 19:17 | 54.59838 | -5.90007 | 1042 ft | 169 kts | 221° |
| 2026-04-25 19:18 | 54.58895 | -5.91182 | 1876 ft | 167 kts | 206° |
| 2026-04-25 19:18 | 54.57804 | -5.91813 | 2692 ft | 166 kts | 189° |
| 2026-04-25 19:18 | 54.56673 | -5.91840 | 3438 ft | 159 kts | 168° |
| 2026-04-25 19:18 | 54.55723 | -5.91047 | 4148 ft | 150 kts | 137° |
| 2026-04-25 19:19 | 54.54937 | -5.89765 | 4497 ft | 167 kts | 152° |
| 2026-04-25 19:19 | 54.53759 | -5.89381 | 4774 ft | 185 kts | 189° |
| 2026-04-25 19:19 | 54.52407 | -5.89643 | 5074 ft | 208 kts | 173° |
| 2026-04-25 19:19 | 54.51481 | -5.89058 | 5274 ft | 225 kts | 146° |
| 2026-04-25 19:20 | 54.50321 | -5.85862 | 5850 ft | 251 kts | 108° |